<?xml version="1.0" encoding="UTF-8" standalone="no" ?>
<gpx xmlns="http://www.topografix.com/GPX/1/1" xmlns:xsi="http://www.w3.org/2001/XMLSchema-instance" xsi:schemaLocation="http://www.topografix.com/GPX/1/1 http://www.topografix.com/GPX/1/1/gpx.xsd" version="1.1" creator="VisuGPX - https://www.visugpx.com">
  <metadata>
    <name>Traversée des Pyrénées 3/8</name>
    <desc><![CDATA[Partie 3/8 de la traversée des Pyrénées à ski.]]></desc>
  </metadata>
  <wpt lat="42.70045" lon="1.09901">
    <ele>1267.5</ele>
    <name><![CDATA[Alos de Isil]]></name>
    <type><![CDATA[user]]></type>
  </wpt>
  <wpt lat="42.66834" lon="1.00357">
    <ele>2334.7</ele>
    <name><![CDATA[Col Estany Pudo]]></name>
    <type><![CDATA[user]]></type>
  </wpt>
  <wpt lat="42.69903" lon="1.00893">
    <ele>2497.3671875</ele>
    <name><![CDATA[Coll Rosari]]></name>
    <type><![CDATA[user]]></type>
  </wpt>
  <wpt lat="42.70381" lon="1.16567">
    <ele>2542.86328125</ele>
    <name><![CDATA[Collada Mont Roig]]></name>
    <type><![CDATA[user]]></type>
  </wpt>
  <wpt lat="42.71179" lon="1.42851">
    <ele>1187.453125</ele>
    <name><![CDATA[L'Artigue]]></name>
    <type><![CDATA[user]]></type>
  </wpt>
  <wpt lat="42.71197" lon="1.27776">
    <ele>2852.0136</ele>
    <name><![CDATA[Pic de Certescan]]></name>
    <type><![CDATA[user]]></type>
  </wpt>
  <wpt lat="42.7012" lon="1.17614">
    <ele>2752.9536</ele>
    <name><![CDATA[Pic de la Gallina]]></name>
    <type><![CDATA[user]]></type>
  </wpt>
  <wpt lat="42.66386" lon="0.97978">
    <ele>2063.25390625</ele>
    <name><![CDATA[Port de la Bonaigua]]></name>
    <type><![CDATA[user]]></type>
  </wpt>
  <wpt lat="42.70308" lon="1.35079">
    <ele>2474.3</ele>
    <name><![CDATA[Port de Lartigue]]></name>
    <type><![CDATA[user]]></type>
  </wpt>
  <wpt lat="42.69695" lon="1.04158">
    <ele>2192.5</ele>
    <name><![CDATA[Ref Airoto]]></name>
    <type><![CDATA[user]]></type>
  </wpt>
  <wpt lat="42.70388" lon="1.3065">
    <ele>2232.6</ele>
    <name><![CDATA[Ref de Certescan]]></name>
    <type><![CDATA[user]]></type>
  </wpt>
  <wpt lat="42.70608" lon="1.18865">
    <ele>2295.4</ele>
    <name><![CDATA[Ref de Mont roig]]></name>
    <type><![CDATA[user]]></type>
  </wpt>
  <trk>
    <name><![CDATA[TPS3_J5 24 FEV 2017 08:21]]></name>
    <trkseg>
      <trkpt lat="42.69664" lon="1.04208">
        <ele>2208.77</ele>
        <time>2017-02-24T07:21:04Z</time>
      </trkpt>
      <trkpt lat="42.69659" lon="1.04215">
        <ele>2218.86</ele>
        <time>2017-02-24T07:24:06Z</time>
      </trkpt>
      <trkpt lat="42.69654" lon="1.04214">
        <ele>2198.67</ele>
        <time>2017-02-24T07:28:32Z</time>
      </trkpt>
      <trkpt lat="42.69652" lon="1.04195">
        <ele>2197.23</ele>
        <time>2017-02-24T07:28:42Z</time>
      </trkpt>
      <trkpt lat="42.69648" lon="1.04158">
        <ele>2192.9</ele>
        <time>2017-02-24T07:28:53Z</time>
      </trkpt>
      <trkpt lat="42.69647" lon="1.04144">
        <ele>2189.06</ele>
        <time>2017-02-24T07:28:58Z</time>
      </trkpt>
      <trkpt lat="42.69636" lon="1.04142">
        <ele>2189.54</ele>
        <time>2017-02-24T07:29:08Z</time>
      </trkpt>
      <trkpt lat="42.69597" lon="1.04144">
        <ele>2183.77</ele>
        <time>2017-02-24T07:29:19Z</time>
      </trkpt>
      <trkpt lat="42.6956" lon="1.04119">
        <ele>2178.48</ele>
        <time>2017-02-24T07:29:35Z</time>
      </trkpt>
      <trkpt lat="42.69537" lon="1.04127">
        <ele>2171.76</ele>
        <time>2017-02-24T07:29:42Z</time>
      </trkpt>
      <trkpt lat="42.69524" lon="1.04129">
        <ele>2169.83</ele>
        <time>2017-02-24T07:29:45Z</time>
      </trkpt>
      <trkpt lat="42.6948" lon="1.04077">
        <ele>2157.34</ele>
        <time>2017-02-24T07:30:02Z</time>
      </trkpt>
      <trkpt lat="42.69481" lon="1.04001">
        <ele>2162.62</ele>
        <time>2017-02-24T07:30:55Z</time>
      </trkpt>
      <trkpt lat="42.69464" lon="1.03973">
        <ele>2157.34</ele>
        <time>2017-02-24T07:37:49Z</time>
      </trkpt>
      <trkpt lat="42.6949" lon="1.03915">
        <ele>2159.74</ele>
        <time>2017-02-24T07:41:17Z</time>
      </trkpt>
      <trkpt lat="42.69595" lon="1.03759">
        <ele>2179.93</ele>
        <time>2017-02-24T07:45:35Z</time>
      </trkpt>
      <trkpt lat="42.69628" lon="1.0374">
        <ele>2190.5</ele>
        <time>2017-02-24T07:47:11Z</time>
      </trkpt>
      <trkpt lat="42.69607" lon="1.03709">
        <ele>2200.59</ele>
        <time>2017-02-24T07:48:51Z</time>
      </trkpt>
      <trkpt lat="42.69619" lon="1.03696">
        <ele>2207.32</ele>
        <time>2017-02-24T07:49:49Z</time>
      </trkpt>
      <trkpt lat="42.69617" lon="1.03688">
        <ele>2211.17</ele>
        <time>2017-02-24T07:50:22Z</time>
      </trkpt>
      <trkpt lat="42.69622" lon="1.03673">
        <ele>2214.05</ele>
        <time>2017-02-24T07:50:54Z</time>
      </trkpt>
      <trkpt lat="42.69661" lon="1.03659">
        <ele>2226.07</ele>
        <time>2017-02-24T07:52:45Z</time>
      </trkpt>
      <trkpt lat="42.69656" lon="1.03628">
        <ele>2234.24</ele>
        <time>2017-02-24T07:54:20Z</time>
      </trkpt>
      <trkpt lat="42.69662" lon="1.03628">
        <ele>2233.76</ele>
        <time>2017-02-24T07:54:33Z</time>
      </trkpt>
      <trkpt lat="42.697" lon="1.03596">
        <ele>2250.1</ele>
        <time>2017-02-24T07:56:33Z</time>
      </trkpt>
      <trkpt lat="42.6971" lon="1.03588">
        <ele>2251.06</ele>
        <time>2017-02-24T07:56:53Z</time>
      </trkpt>
      <trkpt lat="42.69673" lon="1.03556">
        <ele>2264.04</ele>
        <time>2017-02-24T07:58:48Z</time>
      </trkpt>
      <trkpt lat="42.69683" lon="1.0352">
        <ele>2276.06</ele>
        <time>2017-02-24T08:00:32Z</time>
      </trkpt>
      <trkpt lat="42.69697" lon="1.0352">
        <ele>2279.9</ele>
        <time>2017-02-24T08:01:11Z</time>
      </trkpt>
      <trkpt lat="42.6967" lon="1.03426">
        <ele>2302.98</ele>
        <time>2017-02-24T08:04:13Z</time>
      </trkpt>
      <trkpt lat="42.6972" lon="1.03418">
        <ele>2314.99</ele>
        <time>2017-02-24T08:06:15Z</time>
      </trkpt>
      <trkpt lat="42.69727" lon="1.03394">
        <ele>2325.09</ele>
        <time>2017-02-24T08:07:42Z</time>
      </trkpt>
      <trkpt lat="42.69728" lon="1.03394">
        <ele>2321.72</ele>
        <time>2017-02-24T08:07:43Z</time>
      </trkpt>
      <trkpt lat="42.69731" lon="1.03394">
        <ele>2328.45</ele>
        <time>2017-02-24T08:07:55Z</time>
      </trkpt>
      <trkpt lat="42.69743" lon="1.03341">
        <ele>2345.27</ele>
        <time>2017-02-24T08:09:50Z</time>
      </trkpt>
      <trkpt lat="42.69746" lon="1.03262">
        <ele>2349.6</ele>
        <time>2017-02-24T08:12:31Z</time>
      </trkpt>
      <trkpt lat="42.69731" lon="1.03236">
        <ele>2356.33</ele>
        <time>2017-02-24T08:13:32Z</time>
      </trkpt>
      <trkpt lat="42.69698" lon="1.03212">
        <ele>2365.94</ele>
        <time>2017-02-24T08:14:57Z</time>
      </trkpt>
      <trkpt lat="42.69705" lon="1.03202">
        <ele>2365.94</ele>
        <time>2017-02-24T08:15:17Z</time>
      </trkpt>
      <trkpt lat="42.69705" lon="1.03203">
        <ele>2367.38</ele>
        <time>2017-02-24T08:15:30Z</time>
      </trkpt>
      <trkpt lat="42.69707" lon="1.03201">
        <ele>2364.5</ele>
        <time>2017-02-24T08:15:49Z</time>
      </trkpt>
      <trkpt lat="42.6972" lon="1.0319">
        <ele>2370.75</ele>
        <time>2017-02-24T08:22:13Z</time>
      </trkpt>
      <trkpt lat="42.69824" lon="1.03097">
        <ele>2338.54</ele>
        <time>2017-02-24T08:23:04Z</time>
      </trkpt>
      <trkpt lat="42.6983" lon="1.03094">
        <ele>2335.18</ele>
        <time>2017-02-24T08:23:06Z</time>
      </trkpt>
      <trkpt lat="42.69836" lon="1.03084">
        <ele>2336.62</ele>
        <time>2017-02-24T08:23:20Z</time>
      </trkpt>
      <trkpt lat="42.69838" lon="1.03081">
        <ele>2334.22</ele>
        <time>2017-02-24T08:23:29Z</time>
      </trkpt>
      <trkpt lat="42.69846" lon="1.03059">
        <ele>2329.89</ele>
        <time>2017-02-24T08:23:37Z</time>
      </trkpt>
      <trkpt lat="42.69855" lon="1.03054">
        <ele>2325.57</ele>
        <time>2017-02-24T08:23:40Z</time>
      </trkpt>
      <trkpt lat="42.69861" lon="1.03041">
        <ele>2325.57</ele>
        <time>2017-02-24T08:23:43Z</time>
      </trkpt>
      <trkpt lat="42.69868" lon="1.03023">
        <ele>2321.24</ele>
        <time>2017-02-24T08:23:47Z</time>
      </trkpt>
      <trkpt lat="42.69922" lon="1.02969">
        <ele>2317.4</ele>
        <time>2017-02-24T08:24:06Z</time>
      </trkpt>
      <trkpt lat="42.69943" lon="1.02951">
        <ele>2314.03</ele>
        <time>2017-02-24T08:24:13Z</time>
      </trkpt>
      <trkpt lat="42.69952" lon="1.02926">
        <ele>2318.36</ele>
        <time>2017-02-24T08:24:24Z</time>
      </trkpt>
      <trkpt lat="42.69965" lon="1.02927">
        <ele>2314.51</ele>
        <time>2017-02-24T08:24:31Z</time>
      </trkpt>
      <trkpt lat="42.69986" lon="1.02914">
        <ele>2312.11</ele>
        <time>2017-02-24T08:24:37Z</time>
      </trkpt>
      <trkpt lat="42.69983" lon="1.02723">
        <ele>2301.53</ele>
        <time>2017-02-24T08:25:28Z</time>
      </trkpt>
      <trkpt lat="42.69917" lon="1.02504">
        <ele>2307.3</ele>
        <time>2017-02-24T08:34:13Z</time>
      </trkpt>
      <trkpt lat="42.69917" lon="1.02498">
        <ele>2320.76</ele>
        <time>2017-02-24T08:34:38Z</time>
      </trkpt>
      <trkpt lat="42.69917" lon="1.02485">
        <ele>2308.26</ele>
        <time>2017-02-24T08:35:04Z</time>
      </trkpt>
      <trkpt lat="42.69917" lon="1.02467">
        <ele>2310.19</ele>
        <time>2017-02-24T08:35:22Z</time>
      </trkpt>
      <trkpt lat="42.69927" lon="1.02398">
        <ele>2316.43</ele>
        <time>2017-02-24T08:36:41Z</time>
      </trkpt>
      <trkpt lat="42.69939" lon="1.02369">
        <ele>2319.8</ele>
        <time>2017-02-24T08:37:25Z</time>
      </trkpt>
      <trkpt lat="42.69946" lon="1.02357">
        <ele>2315.95</ele>
        <time>2017-02-24T08:37:42Z</time>
      </trkpt>
      <trkpt lat="42.69947" lon="1.02356">
        <ele>2320.76</ele>
        <time>2017-02-24T08:37:43Z</time>
      </trkpt>
      <trkpt lat="42.69955" lon="1.02344">
        <ele>2332.3</ele>
        <time>2017-02-24T08:37:59Z</time>
      </trkpt>
      <trkpt lat="42.6998" lon="1.02295">
        <ele>2325.57</ele>
        <time>2017-02-24T08:39:23Z</time>
      </trkpt>
      <trkpt lat="42.69982" lon="1.02292">
        <ele>2319.8</ele>
        <time>2017-02-24T08:39:39Z</time>
      </trkpt>
      <trkpt lat="42.69983" lon="1.02288">
        <ele>2322.2</ele>
        <time>2017-02-24T08:39:43Z</time>
      </trkpt>
      <trkpt lat="42.69984" lon="1.02271">
        <ele>2323.16</ele>
        <time>2017-02-24T08:39:58Z</time>
      </trkpt>
      <trkpt lat="42.69988" lon="1.02254">
        <ele>2322.68</ele>
        <time>2017-02-24T08:40:15Z</time>
      </trkpt>
      <trkpt lat="42.69992" lon="1.02232">
        <ele>2322.68</ele>
        <time>2017-02-24T08:40:39Z</time>
      </trkpt>
      <trkpt lat="42.70001" lon="1.02203">
        <ele>2324.12</ele>
        <time>2017-02-24T08:41:16Z</time>
      </trkpt>
      <trkpt lat="42.70003" lon="1.02189">
        <ele>2329.89</ele>
        <time>2017-02-24T08:42:58Z</time>
      </trkpt>
      <trkpt lat="42.69884" lon="1.02192">
        <ele>2304.9</ele>
        <time>2017-02-24T08:45:17Z</time>
      </trkpt>
      <trkpt lat="42.69916" lon="1.02082">
        <ele>2298.17</ele>
        <time>2017-02-24T08:46:41Z</time>
      </trkpt>
      <trkpt lat="42.69919" lon="1.02075">
        <ele>2295.28</ele>
        <time>2017-02-24T08:46:48Z</time>
      </trkpt>
      <trkpt lat="42.69922" lon="1.02042">
        <ele>2290</ele>
        <time>2017-02-24T08:47:04Z</time>
      </trkpt>
      <trkpt lat="42.69882" lon="1.0194">
        <ele>2285.19</ele>
        <time>2017-02-24T08:48:20Z</time>
      </trkpt>
      <trkpt lat="42.69883" lon="1.01901">
        <ele>2289.04</ele>
        <time>2017-02-24T08:49:06Z</time>
      </trkpt>
      <trkpt lat="42.69884" lon="1.01863">
        <ele>2284.71</ele>
        <time>2017-02-24T08:49:47Z</time>
      </trkpt>
      <trkpt lat="42.6988" lon="1.01843">
        <ele>2277.98</ele>
        <time>2017-02-24T08:49:52Z</time>
      </trkpt>
      <trkpt lat="42.69878" lon="1.01833">
        <ele>2277.02</ele>
        <time>2017-02-24T08:49:54Z</time>
      </trkpt>
      <trkpt lat="42.69841" lon="1.01783">
        <ele>2276.54</ele>
        <time>2017-02-24T08:50:19Z</time>
      </trkpt>
      <trkpt lat="42.69836" lon="1.01772">
        <ele>2271.25</ele>
        <time>2017-02-24T08:50:24Z</time>
      </trkpt>
      <trkpt lat="42.69836" lon="1.01706">
        <ele>2265.48</ele>
        <time>2017-02-24T08:50:54Z</time>
      </trkpt>
      <trkpt lat="42.69815" lon="1.01624">
        <ele>2276.54</ele>
        <time>2017-02-24T08:53:33Z</time>
      </trkpt>
      <trkpt lat="42.69815" lon="1.01624">
        <ele>2273.66</ele>
        <time>2017-02-24T08:54:11Z</time>
      </trkpt>
      <trkpt lat="42.69752" lon="1.01571">
        <ele>2288.08</ele>
        <time>2017-02-24T08:57:06Z</time>
      </trkpt>
      <trkpt lat="42.69756" lon="1.01553">
        <ele>2294.32</ele>
        <time>2017-02-24T08:57:44Z</time>
      </trkpt>
      <trkpt lat="42.69757" lon="1.0153">
        <ele>2297.21</ele>
        <time>2017-02-24T08:58:25Z</time>
      </trkpt>
      <trkpt lat="42.69766" lon="1.01511">
        <ele>2302.49</ele>
        <time>2017-02-24T08:58:58Z</time>
      </trkpt>
      <trkpt lat="42.69754" lon="1.0147">
        <ele>2313.07</ele>
        <time>2017-02-24T09:00:31Z</time>
      </trkpt>
      <trkpt lat="42.69755" lon="1.01456">
        <ele>2316.43</ele>
        <time>2017-02-24T09:00:57Z</time>
      </trkpt>
      <trkpt lat="42.69752" lon="1.01435">
        <ele>2317.88</ele>
        <time>2017-02-24T09:01:24Z</time>
      </trkpt>
      <trkpt lat="42.6978" lon="1.01378">
        <ele>2339.02</ele>
        <time>2017-02-24T09:04:25Z</time>
      </trkpt>
      <trkpt lat="42.69798" lon="1.01372">
        <ele>2340.47</ele>
        <time>2017-02-24T09:04:56Z</time>
      </trkpt>
      <trkpt lat="42.69811" lon="1.01353">
        <ele>2349.12</ele>
        <time>2017-02-24T09:06:13Z</time>
      </trkpt>
      <trkpt lat="42.69811" lon="1.01353">
        <ele>2346.23</ele>
        <time>2017-02-24T09:06:26Z</time>
      </trkpt>
      <trkpt lat="42.69837" lon="1.01325">
        <ele>2351.52</ele>
        <time>2017-02-24T09:07:16Z</time>
      </trkpt>
      <trkpt lat="42.69825" lon="1.01237">
        <ele>2368.35</ele>
        <time>2017-02-24T09:11:12Z</time>
      </trkpt>
      <trkpt lat="42.69826" lon="1.01219">
        <ele>2369.79</ele>
        <time>2017-02-24T09:11:32Z</time>
      </trkpt>
      <trkpt lat="42.69852" lon="1.0119">
        <ele>2379.4</ele>
        <time>2017-02-24T09:13:03Z</time>
      </trkpt>
      <trkpt lat="42.6984" lon="1.01169">
        <ele>2386.61</ele>
        <time>2017-02-24T09:14:19Z</time>
      </trkpt>
      <trkpt lat="42.69848" lon="1.01112">
        <ele>2399.11</ele>
        <time>2017-02-24T09:17:41Z</time>
      </trkpt>
      <trkpt lat="42.69853" lon="1.01094">
        <ele>2404.39</ele>
        <time>2017-02-24T09:18:30Z</time>
      </trkpt>
      <trkpt lat="42.69854" lon="1.01075">
        <ele>2407.28</ele>
        <time>2017-02-24T09:19:04Z</time>
      </trkpt>
      <trkpt lat="42.69865" lon="1.01065">
        <ele>2414.01</ele>
        <time>2017-02-24T09:19:50Z</time>
      </trkpt>
      <trkpt lat="42.69851" lon="1.01031">
        <ele>2418.33</ele>
        <time>2017-02-24T09:21:13Z</time>
      </trkpt>
      <trkpt lat="42.69857" lon="1.00996">
        <ele>2428.91</ele>
        <time>2017-02-24T09:23:05Z</time>
      </trkpt>
      <trkpt lat="42.69856" lon="1.00989">
        <ele>2429.87</ele>
        <time>2017-02-24T09:23:25Z</time>
      </trkpt>
      <trkpt lat="42.69884" lon="1.00972">
        <ele>2439.48</ele>
        <time>2017-02-24T09:24:51Z</time>
      </trkpt>
      <trkpt lat="42.69913" lon="1.00989">
        <ele>2452.94</ele>
        <time>2017-02-24T09:28:17Z</time>
      </trkpt>
      <trkpt lat="42.699" lon="1.00931">
        <ele>2464.96</ele>
        <time>2017-02-24T09:31:21Z</time>
      </trkpt>
      <trkpt lat="42.69892" lon="1.00921">
        <ele>2466.88</ele>
        <time>2017-02-24T09:31:38Z</time>
      </trkpt>
      <trkpt lat="42.69892" lon="1.00921">
        <ele>2469.28</ele>
        <time>2017-02-24T09:32:39Z</time>
      </trkpt>
      <trkpt lat="42.69895" lon="1.00918">
        <ele>2468.32</ele>
        <time>2017-02-24T09:33:18Z</time>
      </trkpt>
      <trkpt lat="42.699" lon="1.00919">
        <ele>2466.4</ele>
        <time>2017-02-24T09:37:55Z</time>
      </trkpt>
      <trkpt lat="42.69904" lon="1.00929">
        <ele>2465.44</ele>
        <time>2017-02-24T09:38:41Z</time>
      </trkpt>
      <trkpt lat="42.69908" lon="1.00935">
        <ele>2464.96</ele>
        <time>2017-02-24T09:39:00Z</time>
      </trkpt>
      <trkpt lat="42.69914" lon="1.00946">
        <ele>2463.52</ele>
        <time>2017-02-24T09:51:30Z</time>
      </trkpt>
      <trkpt lat="42.69903" lon="1.00887">
        <ele>2497.16</ele>
        <time>2017-02-24T10:03:02Z</time>
      </trkpt>
      <trkpt lat="42.699" lon="1.0087">
        <ele>2502.93</ele>
        <time>2017-02-24T10:30:34Z</time>
      </trkpt>
      <trkpt lat="42.69899" lon="1.00835">
        <ele>2490.91</ele>
        <time>2017-02-24T10:31:00Z</time>
      </trkpt>
      <trkpt lat="42.69908" lon="1.00843">
        <ele>2497.64</ele>
        <time>2017-02-24T10:31:23Z</time>
      </trkpt>
      <trkpt lat="42.69925" lon="1.00845">
        <ele>2490.91</ele>
        <time>2017-02-24T10:31:56Z</time>
      </trkpt>
      <trkpt lat="42.6993" lon="1.0084">
        <ele>2483.22</ele>
        <time>2017-02-24T10:31:58Z</time>
      </trkpt>
      <trkpt lat="42.69917" lon="1.0081">
        <ele>2482.74</ele>
        <time>2017-02-24T10:32:10Z</time>
      </trkpt>
      <trkpt lat="42.69917" lon="1.0081">
        <ele>2479.86</ele>
        <time>2017-02-24T10:32:17Z</time>
      </trkpt>
      <trkpt lat="42.69913" lon="1.00794">
        <ele>2477.94</ele>
        <time>2017-02-24T10:32:45Z</time>
      </trkpt>
      <trkpt lat="42.69913" lon="1.00794">
        <ele>2472.65</ele>
        <time>2017-02-24T10:32:52Z</time>
      </trkpt>
      <trkpt lat="42.69923" lon="1.00796">
        <ele>2474.57</ele>
        <time>2017-02-24T10:32:57Z</time>
      </trkpt>
      <trkpt lat="42.69946" lon="1.00807">
        <ele>2466.88</ele>
        <time>2017-02-24T10:33:05Z</time>
      </trkpt>
      <trkpt lat="42.69952" lon="1.00802">
        <ele>2456.79</ele>
        <time>2017-02-24T10:33:07Z</time>
      </trkpt>
      <trkpt lat="42.69938" lon="1.0075">
        <ele>2456.79</ele>
        <time>2017-02-24T10:33:52Z</time>
      </trkpt>
      <trkpt lat="42.69937" lon="1.00749">
        <ele>2451.5</ele>
        <time>2017-02-24T10:34:06Z</time>
      </trkpt>
      <trkpt lat="42.69937" lon="1.00749">
        <ele>2454.86</ele>
        <time>2017-02-24T10:34:28Z</time>
      </trkpt>
      <trkpt lat="42.69938" lon="1.00749">
        <ele>2449.58</ele>
        <time>2017-02-24T10:34:30Z</time>
      </trkpt>
      <trkpt lat="42.69938" lon="1.00748">
        <ele>2451.02</ele>
        <time>2017-02-24T10:35:12Z</time>
      </trkpt>
      <trkpt lat="42.69936" lon="1.00733">
        <ele>2446.21</ele>
        <time>2017-02-24T10:35:19Z</time>
      </trkpt>
      <trkpt lat="42.6994" lon="1.00727">
        <ele>2452.94</ele>
        <time>2017-02-24T10:35:21Z</time>
      </trkpt>
      <trkpt lat="42.69946" lon="1.00728">
        <ele>2449.58</ele>
        <time>2017-02-24T10:35:23Z</time>
      </trkpt>
      <trkpt lat="42.69949" lon="1.00727">
        <ele>2444.77</ele>
        <time>2017-02-24T10:35:24Z</time>
      </trkpt>
      <trkpt lat="42.6995" lon="1.00723">
        <ele>2438.52</ele>
        <time>2017-02-24T10:35:25Z</time>
      </trkpt>
      <trkpt lat="42.69949" lon="1.00719">
        <ele>2440.44</ele>
        <time>2017-02-24T10:35:26Z</time>
      </trkpt>
      <trkpt lat="42.69943" lon="1.00703">
        <ele>2437.56</ele>
        <time>2017-02-24T10:35:32Z</time>
      </trkpt>
      <trkpt lat="42.6994" lon="1.00693">
        <ele>2432.75</ele>
        <time>2017-02-24T10:35:35Z</time>
      </trkpt>
      <trkpt lat="42.69942" lon="1.00689">
        <ele>2437.08</ele>
        <time>2017-02-24T10:35:37Z</time>
      </trkpt>
      <trkpt lat="42.69949" lon="1.00691">
        <ele>2433.23</ele>
        <time>2017-02-24T10:35:39Z</time>
      </trkpt>
      <trkpt lat="42.69955" lon="1.00685">
        <ele>2425.06</ele>
        <time>2017-02-24T10:35:42Z</time>
      </trkpt>
      <trkpt lat="42.69944" lon="1.00635">
        <ele>2416.89</ele>
        <time>2017-02-24T10:35:57Z</time>
      </trkpt>
      <trkpt lat="42.69947" lon="1.00635">
        <ele>2416.41</ele>
        <time>2017-02-24T10:35:58Z</time>
      </trkpt>
      <trkpt lat="42.6996" lon="1.0064">
        <ele>2409.2</ele>
        <time>2017-02-24T10:36:02Z</time>
      </trkpt>
      <trkpt lat="42.69964" lon="1.00632">
        <ele>2402.47</ele>
        <time>2017-02-24T10:36:05Z</time>
      </trkpt>
      <trkpt lat="42.69957" lon="1.00604">
        <ele>2394.78</ele>
        <time>2017-02-24T10:36:12Z</time>
      </trkpt>
      <trkpt lat="42.69946" lon="1.00556">
        <ele>2386.61</ele>
        <time>2017-02-24T10:36:21Z</time>
      </trkpt>
      <trkpt lat="42.69937" lon="1.00525">
        <ele>2387.09</ele>
        <time>2017-02-24T10:36:29Z</time>
      </trkpt>
      <trkpt lat="42.69935" lon="1.0052">
        <ele>2383.25</ele>
        <time>2017-02-24T10:36:37Z</time>
      </trkpt>
      <trkpt lat="42.69934" lon="1.00511">
        <ele>2381.32</ele>
        <time>2017-02-24T10:36:42Z</time>
      </trkpt>
      <trkpt lat="42.69949" lon="1.0048">
        <ele>2377.48</ele>
        <time>2017-02-24T10:36:54Z</time>
      </trkpt>
      <trkpt lat="42.69957" lon="1.00474">
        <ele>2368.35</ele>
        <time>2017-02-24T10:36:57Z</time>
      </trkpt>
      <trkpt lat="42.69952" lon="1.0046">
        <ele>2370.27</ele>
        <time>2017-02-24T10:37:00Z</time>
      </trkpt>
      <trkpt lat="42.69932" lon="1.0044">
        <ele>2365.46</ele>
        <time>2017-02-24T10:37:07Z</time>
      </trkpt>
      <trkpt lat="42.69917" lon="1.00419">
        <ele>2360.65</ele>
        <time>2017-02-24T10:37:12Z</time>
      </trkpt>
      <trkpt lat="42.69911" lon="1.00335">
        <ele>2352.96</ele>
        <time>2017-02-24T10:37:30Z</time>
      </trkpt>
      <trkpt lat="42.6992" lon="1.00311">
        <ele>2349.12</ele>
        <time>2017-02-24T10:37:36Z</time>
      </trkpt>
      <trkpt lat="42.69909" lon="1.00283">
        <ele>2348.64</ele>
        <time>2017-02-24T10:37:42Z</time>
      </trkpt>
      <trkpt lat="42.69896" lon="1.00199">
        <ele>2331.33</ele>
        <time>2017-02-24T10:37:58Z</time>
      </trkpt>
      <trkpt lat="42.69885" lon="1.00117">
        <ele>2337.58</ele>
        <time>2017-02-24T10:38:36Z</time>
      </trkpt>
      <trkpt lat="42.6989" lon="1.00062">
        <ele>2321.24</ele>
        <time>2017-02-24T10:39:08Z</time>
      </trkpt>
      <trkpt lat="42.6989" lon="1.00048">
        <ele>2314.99</ele>
        <time>2017-02-24T10:39:20Z</time>
      </trkpt>
      <trkpt lat="42.69884" lon="1.00006">
        <ele>2316.43</ele>
        <time>2017-02-24T10:39:27Z</time>
      </trkpt>
      <trkpt lat="42.69853" lon="0.99939">
        <ele>2317.4</ele>
        <time>2017-02-24T10:40:03Z</time>
      </trkpt>
      <trkpt lat="42.69846" lon="0.99923">
        <ele>2313.55</ele>
        <time>2017-02-24T10:40:13Z</time>
      </trkpt>
      <trkpt lat="42.69846" lon="0.99923">
        <ele>2315.47</ele>
        <time>2017-02-24T10:40:16Z</time>
      </trkpt>
      <trkpt lat="42.69844" lon="0.99914">
        <ele>2314.03</ele>
        <time>2017-02-24T10:40:21Z</time>
      </trkpt>
      <trkpt lat="42.69841" lon="0.99896">
        <ele>2312.59</ele>
        <time>2017-02-24T10:40:30Z</time>
      </trkpt>
      <trkpt lat="42.69839" lon="0.9987">
        <ele>2311.15</ele>
        <time>2017-02-24T10:40:38Z</time>
      </trkpt>
      <trkpt lat="42.69836" lon="0.99849">
        <ele>2306.34</ele>
        <time>2017-02-24T10:40:41Z</time>
      </trkpt>
      <trkpt lat="42.69828" lon="0.99822">
        <ele>2310.67</ele>
        <time>2017-02-24T10:40:45Z</time>
      </trkpt>
      <trkpt lat="42.69811" lon="0.99784">
        <ele>2309.22</ele>
        <time>2017-02-24T10:40:54Z</time>
      </trkpt>
      <trkpt lat="42.69802" lon="0.99776">
        <ele>2310.19</ele>
        <time>2017-02-24T10:41:00Z</time>
      </trkpt>
      <trkpt lat="42.69789" lon="0.9976">
        <ele>2306.82</ele>
        <time>2017-02-24T10:41:11Z</time>
      </trkpt>
      <trkpt lat="42.69767" lon="0.99667">
        <ele>2301.53</ele>
        <time>2017-02-24T10:41:34Z</time>
      </trkpt>
      <trkpt lat="42.69728" lon="0.99616">
        <ele>2298.17</ele>
        <time>2017-02-24T10:41:57Z</time>
      </trkpt>
      <trkpt lat="42.69711" lon="0.99538">
        <ele>2301.05</ele>
        <time>2017-02-24T10:43:06Z</time>
      </trkpt>
      <trkpt lat="42.69697" lon="0.99377">
        <ele>2285.67</ele>
        <time>2017-02-24T10:43:39Z</time>
      </trkpt>
      <trkpt lat="42.69674" lon="0.9926">
        <ele>2277.98</ele>
        <time>2017-02-24T10:44:11Z</time>
      </trkpt>
      <trkpt lat="42.69681" lon="0.99149">
        <ele>2281.35</ele>
        <time>2017-02-24T10:44:47Z</time>
      </trkpt>
      <trkpt lat="42.69673" lon="0.99041">
        <ele>2246.74</ele>
        <time>2017-02-24T10:45:45Z</time>
      </trkpt>
      <trkpt lat="42.69666" lon="0.9904">
        <ele>2243.85</ele>
        <time>2017-02-24T10:45:47Z</time>
      </trkpt>
      <trkpt lat="42.69656" lon="0.99034">
        <ele>2234.72</ele>
        <time>2017-02-24T10:45:50Z</time>
      </trkpt>
      <trkpt lat="42.69661" lon="0.99004">
        <ele>2230.4</ele>
        <time>2017-02-24T10:45:55Z</time>
      </trkpt>
      <trkpt lat="42.69631" lon="0.9895">
        <ele>2230.88</ele>
        <time>2017-02-24T10:46:12Z</time>
      </trkpt>
      <trkpt lat="42.69626" lon="0.9894">
        <ele>2223.19</ele>
        <time>2017-02-24T10:46:16Z</time>
      </trkpt>
      <trkpt lat="42.69629" lon="0.98934">
        <ele>2229.43</ele>
        <time>2017-02-24T10:46:37Z</time>
      </trkpt>
      <trkpt lat="42.69635" lon="0.98929">
        <ele>2223.67</ele>
        <time>2017-02-24T10:46:54Z</time>
      </trkpt>
      <trkpt lat="42.69662" lon="0.98912">
        <ele>2217.42</ele>
        <time>2017-02-24T10:47:04Z</time>
      </trkpt>
      <trkpt lat="42.69676" lon="0.98875">
        <ele>2213.57</ele>
        <time>2017-02-24T10:47:12Z</time>
      </trkpt>
      <trkpt lat="42.69679" lon="0.98854">
        <ele>2208.29</ele>
        <time>2017-02-24T10:47:16Z</time>
      </trkpt>
      <trkpt lat="42.69716" lon="0.98809">
        <ele>2202.52</ele>
        <time>2017-02-24T10:47:28Z</time>
      </trkpt>
      <trkpt lat="42.69745" lon="0.98729">
        <ele>2203</ele>
        <time>2017-02-24T10:47:53Z</time>
      </trkpt>
      <trkpt lat="42.69755" lon="0.98728">
        <ele>2197.23</ele>
        <time>2017-02-24T10:48:07Z</time>
      </trkpt>
      <trkpt lat="42.6976" lon="0.9872">
        <ele>2190.98</ele>
        <time>2017-02-24T10:48:10Z</time>
      </trkpt>
      <trkpt lat="42.69766" lon="0.98702">
        <ele>2188.1</ele>
        <time>2017-02-24T10:48:15Z</time>
      </trkpt>
      <trkpt lat="42.69764" lon="0.98665">
        <ele>2176.08</ele>
        <time>2017-02-24T10:48:24Z</time>
      </trkpt>
      <trkpt lat="42.69745" lon="0.98654">
        <ele>2172.72</ele>
        <time>2017-02-24T10:48:29Z</time>
      </trkpt>
      <trkpt lat="42.6976" lon="0.98629">
        <ele>2170.31</ele>
        <time>2017-02-24T10:48:37Z</time>
      </trkpt>
      <trkpt lat="42.6976" lon="0.98615">
        <ele>2165.51</ele>
        <time>2017-02-24T10:48:41Z</time>
      </trkpt>
      <trkpt lat="42.69755" lon="0.98568">
        <ele>2165.03</ele>
        <time>2017-02-24T10:49:25Z</time>
      </trkpt>
      <trkpt lat="42.69777" lon="0.98556">
        <ele>2160.7</ele>
        <time>2017-02-24T10:49:36Z</time>
      </trkpt>
      <trkpt lat="42.69784" lon="0.98533">
        <ele>2154.45</ele>
        <time>2017-02-24T10:49:42Z</time>
      </trkpt>
      <trkpt lat="42.698" lon="0.98454">
        <ele>2145.32</ele>
        <time>2017-02-24T10:50:01Z</time>
      </trkpt>
      <trkpt lat="42.69801" lon="0.98391">
        <ele>2139.07</ele>
        <time>2017-02-24T10:50:18Z</time>
      </trkpt>
      <trkpt lat="42.69809" lon="0.98385">
        <ele>2134.26</ele>
        <time>2017-02-24T10:50:21Z</time>
      </trkpt>
      <trkpt lat="42.69843" lon="0.9831">
        <ele>2126.57</ele>
        <time>2017-02-24T10:51:21Z</time>
      </trkpt>
      <trkpt lat="42.69856" lon="0.98207">
        <ele>2123.21</ele>
        <time>2017-02-24T10:51:56Z</time>
      </trkpt>
      <trkpt lat="42.69856" lon="0.98207">
        <ele>2137.15</ele>
        <time>2017-02-24T10:52:26Z</time>
      </trkpt>
      <trkpt lat="42.69856" lon="0.98206">
        <ele>2123.21</ele>
        <time>2017-02-24T10:52:36Z</time>
      </trkpt>
      <trkpt lat="42.6986" lon="0.982">
        <ele>2122.73</ele>
        <time>2017-02-24T10:52:41Z</time>
      </trkpt>
      <trkpt lat="42.69869" lon="0.98186">
        <ele>2119.84</ele>
        <time>2017-02-24T10:52:49Z</time>
      </trkpt>
      <trkpt lat="42.69878" lon="0.98171">
        <ele>2119.84</ele>
        <time>2017-02-24T10:52:57Z</time>
      </trkpt>
      <trkpt lat="42.69885" lon="0.98164">
        <ele>2120.32</ele>
        <time>2017-02-24T10:53:01Z</time>
      </trkpt>
      <trkpt lat="42.69933" lon="0.98118">
        <ele>2120.32</ele>
        <time>2017-02-24T10:53:47Z</time>
      </trkpt>
      <trkpt lat="42.69944" lon="0.98108">
        <ele>2117.44</ele>
        <time>2017-02-24T10:53:52Z</time>
      </trkpt>
      <trkpt lat="42.69992" lon="0.98099">
        <ele>2117.44</ele>
        <time>2017-02-24T10:54:11Z</time>
      </trkpt>
      <trkpt lat="42.70004" lon="0.98092">
        <ele>2115.04</ele>
        <time>2017-02-24T10:54:16Z</time>
      </trkpt>
      <trkpt lat="42.70009" lon="0.98085">
        <ele>2113.12</ele>
        <time>2017-02-24T10:54:18Z</time>
      </trkpt>
      <trkpt lat="42.70014" lon="0.98077">
        <ele>2107.83</ele>
        <time>2017-02-24T10:54:20Z</time>
      </trkpt>
      <trkpt lat="42.70016" lon="0.98073">
        <ele>2113.12</ele>
        <time>2017-02-24T10:54:21Z</time>
      </trkpt>
      <trkpt lat="42.70026" lon="0.98056">
        <ele>2110.23</ele>
        <time>2017-02-24T10:54:25Z</time>
      </trkpt>
      <trkpt lat="42.70051" lon="0.98007">
        <ele>2111.19</ele>
        <time>2017-02-24T10:54:44Z</time>
      </trkpt>
      <trkpt lat="42.70093" lon="0.97944">
        <ele>2112.63</ele>
        <time>2017-02-24T10:55:33Z</time>
      </trkpt>
      <trkpt lat="42.70117" lon="0.97853">
        <ele>2118.88</ele>
        <time>2017-02-24T10:56:58Z</time>
      </trkpt>
      <trkpt lat="42.70126" lon="0.97832">
        <ele>2111.19</ele>
        <time>2017-02-24T10:57:32Z</time>
      </trkpt>
      <trkpt lat="42.70169" lon="0.97784">
        <ele>2108.79</ele>
        <time>2017-02-24T10:59:31Z</time>
      </trkpt>
      <trkpt lat="42.70161" lon="0.97712">
        <ele>2093.89</ele>
        <time>2017-02-24T10:59:48Z</time>
      </trkpt>
      <trkpt lat="42.70145" lon="0.97702">
        <ele>2087.64</ele>
        <time>2017-02-24T10:59:53Z</time>
      </trkpt>
      <trkpt lat="42.70134" lon="0.97697">
        <ele>2083.79</ele>
        <time>2017-02-24T10:59:56Z</time>
      </trkpt>
      <trkpt lat="42.70124" lon="0.97701">
        <ele>2082.35</ele>
        <time>2017-02-24T10:59:58Z</time>
      </trkpt>
      <trkpt lat="42.70114" lon="0.97691">
        <ele>2077.07</ele>
        <time>2017-02-24T11:00:01Z</time>
      </trkpt>
      <trkpt lat="42.7009" lon="0.97677">
        <ele>2071.78</ele>
        <time>2017-02-24T11:00:05Z</time>
      </trkpt>
      <trkpt lat="42.70078" lon="0.9765">
        <ele>2070.82</ele>
        <time>2017-02-24T11:00:10Z</time>
      </trkpt>
      <trkpt lat="42.70078" lon="0.9763">
        <ele>2067.45</ele>
        <time>2017-02-24T11:00:14Z</time>
      </trkpt>
      <trkpt lat="42.70104" lon="0.97592">
        <ele>2059.76</ele>
        <time>2017-02-24T11:00:24Z</time>
      </trkpt>
      <trkpt lat="42.70118" lon="0.97576">
        <ele>2051.59</ele>
        <time>2017-02-24T11:00:28Z</time>
      </trkpt>
      <trkpt lat="42.70133" lon="0.97576">
        <ele>2051.59</ele>
        <time>2017-02-24T11:00:37Z</time>
      </trkpt>
      <trkpt lat="42.70174" lon="0.97431">
        <ele>2013.62</ele>
        <time>2017-02-24T11:01:02Z</time>
      </trkpt>
      <trkpt lat="42.70125" lon="0.97308">
        <ele>2003.04</ele>
        <time>2017-02-24T11:01:23Z</time>
      </trkpt>
      <trkpt lat="42.70119" lon="0.97263">
        <ele>1995.83</ele>
        <time>2017-02-24T11:01:38Z</time>
      </trkpt>
      <trkpt lat="42.70119" lon="0.97263">
        <ele>2001.12</ele>
        <time>2017-02-24T11:01:39Z</time>
      </trkpt>
      <trkpt lat="42.70124" lon="0.97243">
        <ele>1998.24</ele>
        <time>2017-02-24T11:01:55Z</time>
      </trkpt>
      <trkpt lat="42.70137" lon="0.97221">
        <ele>1994.39</ele>
        <time>2017-02-24T11:01:59Z</time>
      </trkpt>
      <trkpt lat="42.70164" lon="0.97168">
        <ele>1988.62</ele>
        <time>2017-02-24T11:02:07Z</time>
      </trkpt>
      <trkpt lat="42.70173" lon="0.9714">
        <ele>1985.74</ele>
        <time>2017-02-24T11:02:10Z</time>
      </trkpt>
      <trkpt lat="42.70178" lon="0.97119">
        <ele>1980.93</ele>
        <time>2017-02-24T11:02:12Z</time>
      </trkpt>
      <trkpt lat="42.70181" lon="0.97096">
        <ele>1978.05</ele>
        <time>2017-02-24T11:02:14Z</time>
      </trkpt>
      <trkpt lat="42.70188" lon="0.97054">
        <ele>1965.55</ele>
        <time>2017-02-24T11:02:18Z</time>
      </trkpt>
      <trkpt lat="42.70198" lon="0.9704">
        <ele>1963.15</ele>
        <time>2017-02-24T11:02:20Z</time>
      </trkpt>
      <trkpt lat="42.70236" lon="0.96996">
        <ele>1956.9</ele>
        <time>2017-02-24T11:02:27Z</time>
      </trkpt>
      <trkpt lat="42.70251" lon="0.96975">
        <ele>1954.02</ele>
        <time>2017-02-24T11:02:31Z</time>
      </trkpt>
      <trkpt lat="42.70269" lon="0.96962">
        <ele>1947.29</ele>
        <time>2017-02-24T11:02:34Z</time>
      </trkpt>
      <trkpt lat="42.7029" lon="0.9694">
        <ele>1928.06</ele>
        <time>2017-02-24T11:02:37Z</time>
      </trkpt>
      <trkpt lat="42.70324" lon="0.96857">
        <ele>1921.81</ele>
        <time>2017-02-24T11:02:46Z</time>
      </trkpt>
      <trkpt lat="42.70316" lon="0.96843">
        <ele>1920.85</ele>
        <time>2017-02-24T11:02:48Z</time>
      </trkpt>
      <trkpt lat="42.70295" lon="0.96785">
        <ele>1903.07</ele>
        <time>2017-02-24T11:02:54Z</time>
      </trkpt>
      <trkpt lat="42.70271" lon="0.96594">
        <ele>1903.55</ele>
        <time>2017-02-24T11:03:26Z</time>
      </trkpt>
      <trkpt lat="42.7028" lon="0.96576">
        <ele>1904.99</ele>
        <time>2017-02-24T11:04:25Z</time>
      </trkpt>
      <trkpt lat="42.70299" lon="0.96542">
        <ele>1904.51</ele>
        <time>2017-02-24T11:04:40Z</time>
      </trkpt>
      <trkpt lat="42.70306" lon="0.96511">
        <ele>1905.95</ele>
        <time>2017-02-24T11:04:54Z</time>
      </trkpt>
      <trkpt lat="42.70296" lon="0.96476">
        <ele>1910.28</ele>
        <time>2017-02-24T11:05:47Z</time>
      </trkpt>
      <trkpt lat="42.70285" lon="0.96454">
        <ele>1909.32</ele>
        <time>2017-02-24T11:06:22Z</time>
      </trkpt>
      <trkpt lat="42.70267" lon="0.96433">
        <ele>1906.91</ele>
        <time>2017-02-24T11:06:34Z</time>
      </trkpt>
      <trkpt lat="42.70264" lon="0.96417">
        <ele>1903.07</ele>
        <time>2017-02-24T11:06:37Z</time>
      </trkpt>
      <trkpt lat="42.70328" lon="0.96143">
        <ele>1887.69</ele>
        <time>2017-02-24T11:07:22Z</time>
      </trkpt>
      <trkpt lat="42.70342" lon="0.96095">
        <ele>1880</ele>
        <time>2017-02-24T11:07:28Z</time>
      </trkpt>
      <trkpt lat="42.70362" lon="0.96025">
        <ele>1872.79</ele>
        <time>2017-02-24T11:07:35Z</time>
      </trkpt>
      <trkpt lat="42.70413" lon="0.95854">
        <ele>1859.81</ele>
        <time>2017-02-24T11:08:18Z</time>
      </trkpt>
      <trkpt lat="42.70435" lon="0.95833">
        <ele>1853.08</ele>
        <time>2017-02-24T11:08:38Z</time>
      </trkpt>
      <trkpt lat="42.70442" lon="0.958">
        <ele>1849.71</ele>
        <time>2017-02-24T11:09:07Z</time>
      </trkpt>
      <trkpt lat="42.70443" lon="0.95794">
        <ele>1848.75</ele>
        <time>2017-02-24T11:09:08Z</time>
      </trkpt>
      <trkpt lat="42.70462" lon="0.95532">
        <ele>1832.41</ele>
        <time>2017-02-24T11:09:44Z</time>
      </trkpt>
      <trkpt lat="42.70482" lon="0.9548">
        <ele>1830.49</ele>
        <time>2017-02-24T11:09:56Z</time>
      </trkpt>
      <trkpt lat="42.70483" lon="0.95463">
        <ele>1829.53</ele>
        <time>2017-02-24T11:10:00Z</time>
      </trkpt>
      <trkpt lat="42.70456" lon="0.95251">
        <ele>1822.32</ele>
        <time>2017-02-24T11:10:53Z</time>
      </trkpt>
      <trkpt lat="42.7044" lon="0.95164">
        <ele>1817.03</ele>
        <time>2017-02-24T11:11:18Z</time>
      </trkpt>
      <trkpt lat="42.70424" lon="0.95112">
        <ele>1810.3</ele>
        <time>2017-02-24T11:11:26Z</time>
      </trkpt>
      <trkpt lat="42.70418" lon="0.95071">
        <ele>1802.13</ele>
        <time>2017-02-24T11:11:31Z</time>
      </trkpt>
      <trkpt lat="42.70401" lon="0.95">
        <ele>1786.27</ele>
        <time>2017-02-24T11:11:37Z</time>
      </trkpt>
      <trkpt lat="42.70387" lon="0.94979">
        <ele>1782.42</ele>
        <time>2017-02-24T11:11:39Z</time>
      </trkpt>
      <trkpt lat="42.70384" lon="0.94967">
        <ele>1778.1</ele>
        <time>2017-02-24T11:11:40Z</time>
      </trkpt>
      <trkpt lat="42.70378" lon="0.94905">
        <ele>1766.56</ele>
        <time>2017-02-24T11:11:45Z</time>
      </trkpt>
      <trkpt lat="42.70358" lon="0.94834">
        <ele>1747.33</ele>
        <time>2017-02-24T11:11:50Z</time>
      </trkpt>
      <trkpt lat="42.70354" lon="0.9478">
        <ele>1746.37</ele>
        <time>2017-02-24T11:11:54Z</time>
      </trkpt>
      <trkpt lat="42.70301" lon="0.94611">
        <ele>1741.08</ele>
        <time>2017-02-24T11:12:12Z</time>
      </trkpt>
      <trkpt lat="42.70313" lon="0.94527">
        <ele>1730.03</ele>
        <time>2017-02-24T11:13:29Z</time>
      </trkpt>
      <trkpt lat="42.70305" lon="0.94468">
        <ele>1726.18</ele>
        <time>2017-02-24T11:13:35Z</time>
      </trkpt>
      <trkpt lat="42.70301" lon="0.94447">
        <ele>1722.82</ele>
        <time>2017-02-24T11:13:37Z</time>
      </trkpt>
      <trkpt lat="42.70298" lon="0.94395">
        <ele>1718.97</ele>
        <time>2017-02-24T11:13:42Z</time>
      </trkpt>
      <trkpt lat="42.70288" lon="0.94353">
        <ele>1714.65</ele>
        <time>2017-02-24T11:13:47Z</time>
      </trkpt>
      <trkpt lat="42.70273" lon="0.9419">
        <ele>1687.73</ele>
        <time>2017-02-24T11:14:06Z</time>
      </trkpt>
      <trkpt lat="42.70274" lon="0.94182">
        <ele>1684.85</ele>
        <time>2017-02-24T11:14:07Z</time>
      </trkpt>
      <trkpt lat="42.70222" lon="0.94087">
        <ele>1668.51</ele>
        <time>2017-02-24T11:14:23Z</time>
      </trkpt>
      <trkpt lat="42.70204" lon="0.94062">
        <ele>1658.41</ele>
        <time>2017-02-24T11:15:35Z</time>
      </trkpt>
      <trkpt lat="42.70171" lon="0.94021">
        <ele>1649.76</ele>
        <time>2017-02-24T11:15:42Z</time>
      </trkpt>
      <trkpt lat="42.70157" lon="0.94011">
        <ele>1647.84</ele>
        <time>2017-02-24T11:15:44Z</time>
      </trkpt>
      <trkpt lat="42.70145" lon="0.93997">
        <ele>1639.67</ele>
        <time>2017-02-24T11:15:46Z</time>
      </trkpt>
      <trkpt lat="42.70138" lon="0.93991">
        <ele>1642.07</ele>
        <time>2017-02-24T11:15:47Z</time>
      </trkpt>
      <trkpt lat="42.70114" lon="0.93967">
        <ele>1634.38</ele>
        <time>2017-02-24T11:15:51Z</time>
      </trkpt>
      <trkpt lat="42.7007" lon="0.93933">
        <ele>1627.65</ele>
        <time>2017-02-24T11:15:58Z</time>
      </trkpt>
      <trkpt lat="42.70001" lon="0.93863">
        <ele>1611.79</ele>
        <time>2017-02-24T11:16:11Z</time>
      </trkpt>
      <trkpt lat="42.69949" lon="0.93831">
        <ele>1610.83</ele>
        <time>2017-02-24T11:17:30Z</time>
      </trkpt>
      <trkpt lat="42.69964" lon="0.93796">
        <ele>1601.69</ele>
        <time>2017-02-24T11:17:53Z</time>
      </trkpt>
      <trkpt lat="42.69966" lon="0.9379">
        <ele>1595.93</ele>
        <time>2017-02-24T11:17:54Z</time>
      </trkpt>
      <trkpt lat="42.69971" lon="0.93757">
        <ele>1587.75</ele>
        <time>2017-02-24T11:17:59Z</time>
      </trkpt>
      <trkpt lat="42.69972" lon="0.93751">
        <ele>1582.47</ele>
        <time>2017-02-24T11:18:00Z</time>
      </trkpt>
      <trkpt lat="42.69975" lon="0.9372">
        <ele>1570.93</ele>
        <time>2017-02-24T11:18:04Z</time>
      </trkpt>
      <trkpt lat="42.69986" lon="0.93674">
        <ele>1558.43</ele>
        <time>2017-02-24T11:18:11Z</time>
      </trkpt>
      <trkpt lat="42.69981" lon="0.93588">
        <ele>1530.56</ele>
        <time>2017-02-24T11:18:26Z</time>
      </trkpt>
      <trkpt lat="42.69983" lon="0.93571">
        <ele>1526.71</ele>
        <time>2017-02-24T11:18:28Z</time>
      </trkpt>
      <trkpt lat="42.69985" lon="0.93554">
        <ele>1521.42</ele>
        <time>2017-02-24T11:18:30Z</time>
      </trkpt>
      <trkpt lat="42.69968" lon="0.93515">
        <ele>1510.85</ele>
        <time>2017-02-24T11:18:40Z</time>
      </trkpt>
      <trkpt lat="42.69955" lon="0.93511">
        <ele>1507.97</ele>
        <time>2017-02-24T11:18:44Z</time>
      </trkpt>
      <trkpt lat="42.69935" lon="0.935">
        <ele>1508.45</ele>
        <time>2017-02-24T11:19:14Z</time>
      </trkpt>
      <trkpt lat="42.69933" lon="0.93477">
        <ele>1502.68</ele>
        <time>2017-02-24T11:19:20Z</time>
      </trkpt>
      <trkpt lat="42.69902" lon="0.93457">
        <ele>1495.95</ele>
        <time>2017-02-24T11:19:29Z</time>
      </trkpt>
      <trkpt lat="42.69904" lon="0.9344">
        <ele>1510.85</ele>
        <time>2017-02-24T11:21:53Z</time>
      </trkpt>
      <trkpt lat="42.69904" lon="0.9344">
        <ele>1494.99</ele>
        <time>2017-02-24T11:22:26Z</time>
      </trkpt>
    </trkseg>
  </trk>
</gpx>